createdAt,value
2019-02-23T00:01:00.436Z,15.45
2019-02-23T00:03:28.235Z,15.68
2019-02-23T00:05:56.108Z,14.50
2019-02-23T00:08:24.052Z,15.38
2019-02-23T00:10:51.807Z,14.95
2019-02-23T00:13:19.607Z,15.93
2019-02-23T00:15:47.541Z,17.07
2019-02-23T00:18:15.352Z,16.07
2019-02-23T00:20:43.798Z,16.82
2019-02-23T00:23:11.705Z,18.52
2019-02-23T00:25:39.545Z,17.90
2019-02-23T00:28:07.363Z,22.22
2019-02-23T00:30:35.312Z,18.60
2019-02-23T00:33:03.313Z,16.90
2019-02-23T00:35:31.184Z,16.50
2019-02-23T00:37:59.095Z,17.42
2019-02-23T00:40:26.929Z,15.78
2019-02-23T00:42:54.756Z,16.90
2019-02-23T00:45:22.497Z,16.75
2019-02-23T00:47:50.420Z,18.35
2019-02-23T00:50:18.391Z,22.98
2019-02-23T00:52:46.699Z,27.75
2019-02-23T00:55:14.534Z,37.08
2019-02-23T00:57:42.444Z,31.10
2019-02-23T01:00:12.439Z,23.47
2019-02-23T01:02:40.594Z,19.32
2019-02-23T01:05:08.557Z,16.40
2019-02-23T01:07:37.411Z,15.05
2019-02-23T01:10:06.893Z,14.55
2019-02-23T01:12:34.765Z,14.00
2019-02-23T01:15:02.669Z,14.28
2019-02-23T01:17:30.412Z,15.00
2019-02-23T01:19:58.656Z,15.15
2019-02-23T01:22:26.512Z,16.50
2019-02-23T01:24:54.618Z,19.60
2019-02-23T01:27:22.600Z,19.05
2019-02-23T01:29:50.506Z,21.60
2019-02-23T01:32:18.337Z,24.52
2019-02-23T01:34:46.362Z,27.95
2019-02-23T01:37:14.232Z,28.80
2019-02-23T01:39:42.132Z,29.35
2019-02-23T01:42:11.042Z,35.73
2019-02-23T01:44:38.850Z,39.95
2019-02-23T01:47:06.998Z,30.23
2019-02-23T01:49:34.974Z,28.23
2019-02-23T01:52:02.927Z,26.07
2019-02-23T01:54:30.733Z,22.48
2019-02-23T01:56:58.677Z,23.02
2019-02-23T01:59:26.475Z,25.68
2019-02-23T02:01:54.518Z,27.22
2019-02-23T02:04:22.552Z,22.85
2019-02-23T02:06:50.521Z,18.32
2019-02-23T02:09:18.512Z,20.77
2019-02-23T02:11:46.467Z,21.25
2019-02-23T02:14:14.470Z,19.45
2019-02-23T02:16:42.416Z,22.25
2019-02-23T02:19:10.363Z,21.87
2019-02-23T02:21:38.120Z,21.55
2019-02-23T02:24:06.024Z,21.60
2019-02-23T02:26:33.895Z,24.07
2019-02-23T02:29:01.693Z,23.70
2019-02-23T02:31:29.443Z,22.48
2019-02-23T02:34:08.112Z,23.35
2019-02-23T02:36:35.987Z,23.87
2019-02-23T02:39:07.844Z,27.13
2019-02-23T02:41:36.281Z,27.17
2019-02-23T02:44:04.102Z,29.40
2019-02-23T02:46:31.975Z,28.65
2019-02-23T02:48:59.869Z,36.10
2019-02-23T02:51:27.775Z,30.60
2019-02-23T02:53:55.690Z,30.23
2019-02-23T02:56:24.770Z,30.57
2019-02-23T02:58:52.715Z,31.95
2019-02-23T03:01:20.561Z,31.85
2019-02-23T03:03:48.285Z,30.30
2019-02-23T03:06:16.102Z,30.92
2019-02-23T03:08:44.160Z,36.40
2019-02-23T03:11:12.006Z,36.33
2019-02-23T03:13:40.564Z,35.58
2019-02-23T03:16:20.196Z,24.55
2019-02-23T03:18:48.233Z,19.30
2019-02-23T03:21:16.156Z,17.27
2019-02-23T03:23:43.893Z,19.20
2019-02-23T03:26:11.894Z,19.80
2019-02-23T03:28:39.640Z,17.60
2019-02-23T03:31:07.675Z,16.65
2019-02-23T03:33:35.422Z,17.62
2019-02-23T03:36:03.636Z,16.10
2019-02-23T03:38:31.503Z,17.15
2019-02-23T03:40:59.510Z,16.73
2019-02-23T03:43:27.435Z,17.10
2019-02-23T03:45:55.321Z,15.83
2019-02-23T03:48:23.192Z,16.67
2019-02-23T03:50:51.064Z,14.98
2019-02-23T03:53:18.916Z,15.70
2019-02-23T03:55:46.706Z,15.13
2019-02-23T03:58:14.785Z,15.80
2019-02-23T04:00:42.821Z,15.78
2019-02-23T04:03:10.699Z,15.30
2019-02-23T04:05:38.706Z,16.55
2019-02-23T04:08:06.693Z,15.78
2019-02-23T04:10:34.616Z,15.80
2019-02-23T04:13:02.554Z,17.07
2019-02-23T04:15:30.342Z,15.60
2019-02-23T04:17:58.105Z,16.77
2019-02-23T04:20:26.433Z,15.95
2019-02-23T04:22:54.210Z,16.42
2019-02-23T04:25:22.332Z,17.12
2019-02-23T04:27:50.195Z,17.87
2019-02-23T04:30:18.118Z,19.17
2019-02-23T04:32:45.964Z,17.70
2019-02-23T04:35:13.772Z,18.07
2019-02-23T04:37:42.387Z,19.12
2019-02-23T04:40:10.279Z,20.37
2019-02-23T04:42:38.056Z,20.40
2019-02-23T04:45:06.153Z,19.82
2019-02-23T04:47:33.993Z,19.23
2019-02-23T04:50:03.409Z,18.73
2019-02-23T04:52:31.278Z,19.07
2019-02-23T04:55:01.283Z,19.27
2019-02-23T04:57:29.227Z,18.27
2019-02-23T04:59:57.024Z,18.23
2019-02-23T05:02:24.945Z,17.70
2019-02-23T05:04:52.949Z,17.62
2019-02-23T05:07:21.365Z,17.60
2019-02-23T05:09:49.241Z,16.60
2019-02-23T05:12:17.788Z,17.92
2019-02-23T05:14:45.841Z,16.15
2019-02-23T05:17:13.869Z,17.23
2019-02-23T05:19:42.328Z,15.63
2019-02-23T05:22:10.357Z,17.57
2019-02-23T05:24:38.184Z,16.87
2019-02-23T05:27:06.022Z,17.17
2019-02-23T05:29:33.798Z,16.90
2019-02-23T05:32:01.701Z,16.97
2019-02-23T05:34:29.653Z,16.75
2019-02-23T05:36:57.446Z,17.92
2019-02-23T05:39:25.211Z,18.12
2019-02-23T05:41:53.131Z,19.62
2019-02-23T05:44:20.874Z,20.75
2019-02-23T05:46:48.801Z,21.10
2019-02-23T05:49:16.771Z,20.72
2019-02-23T05:51:48.478Z,19.30
2019-02-23T05:54:16.377Z,22.02
2019-02-23T05:56:44.315Z,23.95
2019-02-23T05:59:12.769Z,23.95
2019-02-23T06:01:40.703Z,25.05
2019-02-23T06:04:08.643Z,25.55
2019-02-23T06:06:37.050Z,26.02
2019-02-23T06:09:05.543Z,28.52
2019-02-23T06:11:33.680Z,27.30
2019-02-23T06:14:01.451Z,30.30
2019-02-23T06:16:29.963Z,29.02
2019-02-23T06:18:57.815Z,31.00
2019-02-23T06:21:25.670Z,33.15
2019-02-23T06:23:53.401Z,46.83
2019-02-23T06:26:21.201Z,68.60
2019-02-23T06:28:49.094Z,71.87
2019-02-23T06:31:16.915Z,71.17
2019-02-23T06:33:44.701Z,67.78
2019-02-23T06:36:12.594Z,71.47
2019-02-23T06:38:40.351Z,71.22
2019-02-23T06:41:08.179Z,66.50
2019-02-23T06:43:35.916Z,65.67
2019-02-23T06:46:03.803Z,61.40
2019-02-23T06:48:31.713Z,58.33
2019-02-23T06:50:59.797Z,54.88
2019-02-23T06:53:27.765Z,50.80
2019-02-23T06:55:55.762Z,48.92
2019-02-23T06:58:23.649Z,51.00
2019-02-23T07:00:52.095Z,54.58
2019-02-23T07:03:19.992Z,55.52
2019-02-23T07:05:48.140Z,57.33
2019-02-23T07:08:16.134Z,60.00
2019-02-23T07:10:44.017Z,57.83
2019-02-23T07:13:11.831Z,53.17
2019-02-23T07:15:39.880Z,53.40
2019-02-23T07:18:07.690Z,53.30
2019-02-23T07:20:43.659Z,54.90
2019-02-23T07:23:05.528Z,45.88
2019-02-23T07:25:33.430Z,41.45
2019-02-23T07:28:01.249Z,49.25
2019-02-23T07:30:29.223Z,60.23
2019-02-23T07:32:57.050Z,51.50
2019-02-23T07:35:24.822Z,35.58
2019-02-23T07:37:52.609Z,25.25
2019-02-23T07:40:20.453Z,25.37
2019-02-23T07:42:48.351Z,28.10
2019-02-23T07:45:16.126Z,33.88
2019-02-23T07:47:44.019Z,37.73
2019-02-23T07:50:12.049Z,30.88
2019-02-23T07:52:39.948Z,27.65
2019-02-23T07:55:07.913Z,23.80
2019-02-23T07:57:35.860Z,23.57
2019-02-23T08:00:04.040Z,23.73
2019-02-23T08:02:31.962Z,23.18
2019-02-23T08:04:59.714Z,22.17
2019-02-23T08:07:27.650Z,91.80
2019-02-23T08:09:55.600Z,41.77
2019-02-23T08:12:23.545Z,55.23
2019-02-23T08:14:51.304Z,34.53
2019-02-23T08:17:19.101Z,45.67
2019-02-23T08:19:47.046Z,17.32
2019-02-23T08:22:14.870Z,23.18
2019-02-23T08:24:42.721Z,25.40
2019-02-23T08:27:10.493Z,15.40
2019-02-23T08:29:38.414Z,13.95
2019-02-23T08:32:06.160Z,14.73
2019-02-23T08:34:33.952Z,15.18
2019-02-23T08:37:01.743Z,13.43
2019-02-23T08:39:29.591Z,14.70
2019-02-23T08:41:57.333Z,13.62
2019-02-23T08:44:25.150Z,13.98
2019-02-23T08:46:52.910Z,13.75
2019-02-23T08:49:20.825Z,15.00
2019-02-23T08:51:48.618Z,15.20
2019-02-23T08:54:16.547Z,11.93
2019-02-23T08:56:44.991Z,11.88
2019-02-23T08:59:12.822Z,10.95
2019-02-23T09:01:40.673Z,11.43
2019-02-23T09:04:08.483Z,11.25
2019-02-23T09:06:36.253Z,11.03
2019-02-23T09:09:08.044Z,11.75
2019-02-23T09:11:35.352Z,10.88
2019-02-23T09:14:03.694Z,10.55
2019-02-23T09:16:31.461Z,10.15
2019-02-23T09:18:59.289Z,10.85
2019-02-23T09:21:27.230Z,9.68
2019-02-23T09:23:55.024Z,9.43
2019-02-23T09:26:22.987Z,9.30
2019-02-23T09:28:50.897Z,7.37
2019-02-23T09:31:18.664Z,8.18
2019-02-23T09:33:46.563Z,7.47
2019-02-23T09:36:14.411Z,6.33
2019-02-23T09:38:42.769Z,6.83
2019-02-23T09:41:10.769Z,8.03
2019-02-23T09:43:38.665Z,7.95
2019-02-23T09:46:06.513Z,9.15
2019-02-23T09:48:34.336Z,8.43
2019-02-23T09:51:02.313Z,7.50
2019-02-23T09:53:30.513Z,8.20
2019-02-23T09:55:58.562Z,8.20
2019-02-23T09:58:26.388Z,8.18
2019-02-23T10:00:54.678Z,7.90
2019-02-23T10:03:22.625Z,7.67
2019-02-23T10:05:50.590Z,7.28
2019-02-23T10:08:18.442Z,7.65
2019-02-23T10:10:46.324Z,7.53
2019-02-23T10:13:14.293Z,7.45
2019-02-23T10:15:42.323Z,7.97
2019-02-23T10:18:10.156Z,8.88
2019-02-23T10:20:37.950Z,7.40
2019-02-23T10:23:05.709Z,6.58
2019-02-23T10:25:33.487Z,6.92
2019-02-23T10:28:01.217Z,8.48
2019-02-23T10:30:29.143Z,9.70
2019-02-23T10:32:56.890Z,8.55
2019-02-23T10:35:24.827Z,9.20
2019-02-23T10:37:53.388Z,7.42
2019-02-23T10:40:21.224Z,7.00
2019-02-23T10:42:48.993Z,7.20
2019-02-23T10:45:16.885Z,6.40
2019-02-23T10:47:44.768Z,6.37
2019-02-23T10:50:13.034Z,8.05
2019-02-23T10:52:40.825Z,8.35
2019-02-23T10:55:09.540Z,7.15
2019-02-23T10:57:37.403Z,7.65
2019-02-23T11:00:10.401Z,6.35
2019-02-23T11:02:38.258Z,5.53
2019-02-23T11:05:09.094Z,4.83
2019-02-23T11:07:36.947Z,5.28
2019-02-23T11:10:05.424Z,5.83
2019-02-23T11:12:33.373Z,6.03
2019-02-23T11:15:01.170Z,6.85
2019-02-23T11:17:29.122Z,7.10
2019-02-23T11:19:57.722Z,6.55
2019-02-23T11:22:25.702Z,8.58
2019-02-23T11:24:53.708Z,11.85
2019-02-23T11:27:21.568Z,14.30
2019-02-23T11:29:49.496Z,14.30
2019-02-23T11:32:17.252Z,12.50
2019-02-23T11:34:45.078Z,10.35
2019-02-23T11:37:12.941Z,9.53
2019-02-23T11:39:40.741Z,8.30
2019-02-23T11:42:08.606Z,8.55
2019-02-23T11:44:36.426Z,7.17
2019-02-23T11:47:04.351Z,7.58
2019-02-23T11:49:32.174Z,7.20
2019-02-23T11:52:00.071Z,6.65
2019-02-23T11:54:27.881Z,7.03
2019-02-23T11:56:55.652Z,6.12
2019-02-23T11:59:24.124Z,6.47
2019-02-23T12:01:52.758Z,5.83
2019-02-23T12:04:20.528Z,5.87
2019-02-23T12:06:48.451Z,6.45
2019-02-23T12:09:16.210Z,6.37
2019-02-23T12:11:44.204Z,6.03
2019-02-23T12:14:12.062Z,6.30
2019-02-23T12:16:39.850Z,6.53
2019-02-23T12:19:07.712Z,6.87
2019-02-23T12:21:35.549Z,6.35
2019-02-23T12:24:06.297Z,7.55
2019-02-23T12:26:33.160Z,6.45
2019-02-23T12:29:00.919Z,6.65
2019-02-23T12:31:28.916Z,6.30
2019-02-23T12:33:56.780Z,5.78
2019-02-23T12:36:24.822Z,6.67
2019-02-23T12:38:52.672Z,5.92
2019-02-23T12:41:20.478Z,6.17
2019-02-23T12:43:48.325Z,7.33
2019-02-23T12:46:16.454Z,7.22
2019-02-23T12:48:44.191Z,6.67
2019-02-23T12:51:12.210Z,6.97
2019-02-23T12:53:40.227Z,7.55
2019-02-23T12:56:08.162Z,7.28
2019-02-23T12:58:36.540Z,8.05
2019-02-23T13:01:04.559Z,8.40
2019-02-23T13:03:32.520Z,7.72
2019-02-23T13:06:00.330Z,7.33
2019-02-23T13:09:06.035Z,7.28
2019-02-23T13:11:33.830Z,6.60
2019-02-23T13:14:24.627Z,6.10
2019-02-23T13:17:08.716Z,6.33
2019-02-23T13:19:55.777Z,6.37
2019-02-23T13:23:04.269Z,6.45
2019-02-23T13:26:16.570Z,6.30
2019-02-23T13:29:13.730Z,6.00
2019-02-23T13:32:25.066Z,5.83
2019-02-23T13:35:22.972Z,5.85
2019-02-23T13:38:22.593Z,7.92
2019-02-23T13:41:18.940Z,12.13
2019-02-23T13:44:21.379Z,9.15
2019-02-23T13:47:04.334Z,7.87
2019-02-23T13:50:14.760Z,8.18
2019-02-23T13:53:36.589Z,10.35
2019-02-23T13:56:45.748Z,8.45
2019-02-23T13:59:56.243Z,7.42
2019-02-23T14:03:14.327Z,8.50
2019-02-23T14:05:59.304Z,6.83
2019-02-23T14:09:04.715Z,7.42
2019-02-23T14:12:00.579Z,8.05
2019-02-23T14:15:09.518Z,7.72
2019-02-23T14:18:18.965Z,6.97
2019-02-23T14:21:27.074Z,10.68
2019-02-23T14:24:50.403Z,8.08
2019-02-23T14:27:43.141Z,8.38
2019-02-23T14:31:10.575Z,10.00
2019-02-23T14:34:09.880Z,7.10
2019-02-23T14:37:22.060Z,9.75
2019-02-23T14:40:49.525Z,9.35
2019-02-23T14:44:08.234Z,9.28
2019-02-23T14:46:57.149Z,10.08
2019-02-23T14:50:33.837Z,11.25
2019-02-23T14:54:07.274Z,8.80
2019-02-23T14:57:16.469Z,15.10
2019-02-23T14:59:57.160Z,8.55
2019-02-23T15:03:25.061Z,17.35
2019-02-23T15:06:32.798Z,7.83
2019-02-23T15:09:40.835Z,9.73
2019-02-23T15:12:43.795Z,15.05
2019-02-23T15:15:46.869Z,14.33
2019-02-23T15:18:50.360Z,8.83
2019-02-23T15:22:21.457Z,7.75
2019-02-23T15:25:26.265Z,7.95
2019-02-23T15:28:30.324Z,7.25
2019-02-23T15:31:10.250Z,7.85
2019-02-23T15:34:38.328Z,8.53
2019-02-23T15:37:18.397Z,10.60
2019-02-23T15:40:12.253Z,20.43
2019-02-23T15:43:10.372Z,16.42
2019-02-23T15:46:28.370Z,23.25
2019-02-23T15:49:34.615Z,19.65
2019-02-23T15:52:04.331Z,22.52
2019-02-23T15:54:32.331Z,26.75
2019-02-23T15:57:00.082Z,34.03
2019-02-23T15:59:27.920Z,35.85
2019-02-23T16:01:55.827Z,36.48
2019-02-23T16:04:23.654Z,27.98
2019-02-23T16:06:51.941Z,19.95
2019-02-23T16:09:19.896Z,21.87
2019-02-23T16:11:47.820Z,22.13
2019-02-23T16:14:15.685Z,22.10
2019-02-23T16:16:43.618Z,36.00
2019-02-23T16:19:11.472Z,49.53
2019-02-23T16:21:39.378Z,51.02
2019-02-23T16:24:07.316Z,75.50
2019-02-23T16:26:35.326Z,73.35
2019-02-23T16:29:03.188Z,44.30
2019-02-23T16:31:31.072Z,34.85
2019-02-23T16:33:58.816Z,29.70
2019-02-23T16:36:26.615Z,23.32
2019-02-23T16:38:54.369Z,18.37
2019-02-23T16:41:22.683Z,16.73
2019-02-23T16:43:50.625Z,21.68
2019-02-23T16:46:18.417Z,18.87
2019-02-23T16:48:46.150Z,19.87
2019-02-23T16:51:14.764Z,25.77
2019-02-23T16:53:42.824Z,40.90
2019-02-23T16:56:10.612Z,44.60
2019-02-23T16:58:38.375Z,33.70
2019-02-23T17:01:06.295Z,26.33
2019-02-23T17:03:34.038Z,25.68
2019-02-23T17:06:01.877Z,29.60
2019-02-23T17:08:29.746Z,31.45
2019-02-23T17:10:57.646Z,29.87
2019-02-23T17:13:25.620Z,28.38
2019-02-23T17:15:53.470Z,30.92
2019-02-23T17:18:21.231Z,40.88
2019-02-23T17:20:49.033Z,36.23
2019-02-23T17:23:16.762Z,29.77
2019-02-23T17:25:44.544Z,22.80
2019-02-23T17:28:12.603Z,24.40
2019-02-23T17:30:40.423Z,28.52
2019-02-23T17:33:08.255Z,27.52
2019-02-23T17:35:36.076Z,25.50
2019-02-23T17:38:15.488Z,29.72
2019-02-23T17:40:33.811Z,37.70
2019-02-23T17:43:02.325Z,24.60
2019-02-23T17:45:30.248Z,15.53
2019-02-23T17:47:59.201Z,11.48
2019-02-23T17:50:26.920Z,9.00
2019-02-23T17:52:54.692Z,9.45
2019-02-23T17:55:22.606Z,8.73
2019-02-23T17:57:50.488Z,8.85
2019-02-23T18:00:21.327Z,7.55
2019-02-23T18:02:49.820Z,7.05
2019-02-23T18:05:17.566Z,6.80
2019-02-23T18:07:45.391Z,8.38
2019-02-23T18:10:13.698Z,8.13
2019-02-23T18:12:41.584Z,7.08
2019-02-23T18:15:09.464Z,8.23
2019-02-23T18:17:37.271Z,9.45
2019-02-23T18:20:09.244Z,10.08
2019-02-23T18:22:37.141Z,10.43
2019-02-23T18:25:05.139Z,11.45
2019-02-23T18:27:33.731Z,12.07
2019-02-23T18:30:10.746Z,17.00
2019-02-23T18:32:31.367Z,23.57
2019-02-23T18:35:00.485Z,15.88
2019-02-23T18:37:28.714Z,16.82
2019-02-23T18:40:06.639Z,23.55
2019-02-23T18:42:34.562Z,29.82
2019-02-23T18:45:02.493Z,53.75
2019-02-23T18:47:30.428Z,35.85
2019-02-23T18:49:58.189Z,23.20
2019-02-23T18:52:26.059Z,19.25
2019-02-23T18:54:53.869Z,18.52
2019-02-23T18:57:21.770Z,20.62
2019-02-23T18:59:49.950Z,20.80
2019-02-23T19:02:17.846Z,20.48
2019-02-23T19:04:45.573Z,18.98
2019-02-23T19:07:13.484Z,18.98
2019-02-23T19:09:41.224Z,18.48
2019-02-23T19:12:09.018Z,15.38
2019-02-23T19:14:36.768Z,15.35
2019-02-23T19:17:04.665Z,15.88
2019-02-23T19:19:32.504Z,20.27
2019-02-23T19:22:00.421Z,24.00
2019-02-23T19:24:28.382Z,30.60
2019-02-23T19:26:56.192Z,32.98
2019-02-23T19:29:23.954Z,19.35
2019-02-23T19:31:51.832Z,17.12
2019-02-23T19:34:20.365Z,15.40
2019-02-23T19:36:48.911Z,15.83
2019-02-23T19:39:16.705Z,16.87
2019-02-23T19:41:44.475Z,15.32
2019-02-23T19:44:12.284Z,17.42
2019-02-23T19:46:49.176Z,16.25
2019-02-23T19:49:16.980Z,16.77
2019-02-23T19:51:44.711Z,17.07
2019-02-23T19:54:17.905Z,17.80
2019-02-23T19:56:46.997Z,18.55
2019-02-23T19:59:15.040Z,16.65
2019-02-23T20:01:42.899Z,19.07
2019-02-23T20:04:10.684Z,20.12
2019-02-23T20:06:38.416Z,20.55
2019-02-23T20:09:06.739Z,21.10
2019-02-23T20:11:34.475Z,21.12
2019-02-23T20:14:02.394Z,22.10
2019-02-23T20:16:30.140Z,22.00
2019-02-23T20:18:57.983Z,22.65
2019-02-23T20:21:25.848Z,23.98
2019-02-23T20:23:53.753Z,23.73
2019-02-23T20:26:21.600Z,24.37
2019-02-23T20:28:49.417Z,25.55
2019-02-23T20:31:17.165Z,71.33
2019-02-23T20:33:44.987Z,73.22
2019-02-23T20:36:12.856Z,54.20
2019-02-23T20:38:40.762Z,67.15
2019-02-23T20:41:08.523Z,82.97
2019-02-23T20:43:36.346Z,32.15
2019-02-23T20:46:04.172Z,23.60
2019-02-23T20:48:32.170Z,23.27
2019-02-23T20:50:59.910Z,21.65
2019-02-23T20:53:28.630Z,20.48
2019-02-23T20:55:56.601Z,20.48
2019-02-23T20:58:24.396Z,20.48
2019-02-23T21:00:52.258Z,20.90
2019-02-23T21:03:20.048Z,21.90
2019-02-23T21:05:47.814Z,22.00
2019-02-23T21:08:15.815Z,23.27
2019-02-23T21:10:43.732Z,21.90
2019-02-23T21:13:11.609Z,23.57
2019-02-23T21:15:39.471Z,22.40
2019-02-23T21:18:07.256Z,23.70
2019-02-23T21:20:35.171Z,23.18
2019-02-23T21:23:02.936Z,23.10
2019-02-23T21:25:31.349Z,21.55
2019-02-23T21:27:59.395Z,23.30
2019-02-23T21:30:27.185Z,23.35
2019-02-23T21:32:54.937Z,22.93
2019-02-23T21:35:22.947Z,25.48
2019-02-23T21:37:50.684Z,25.00
2019-02-23T21:40:18.804Z,24.32
2019-02-23T21:42:46.776Z,25.95
2019-02-23T21:45:14.775Z,26.42
2019-02-23T21:47:42.505Z,29.60
2019-02-23T21:50:10.416Z,30.08
2019-02-23T21:52:38.264Z,34.10
2019-02-23T21:55:06.325Z,37.35
2019-02-23T21:57:34.152Z,35.05
2019-02-23T22:00:02.766Z,38.88
2019-02-23T22:02:30.573Z,48.10
2019-02-23T22:04:58.451Z,55.03
2019-02-23T22:07:26.302Z,56.65
2019-02-23T22:09:54.096Z,45.15
2019-02-23T22:12:21.835Z,45.15
2019-02-23T22:14:49.629Z,40.90
2019-02-23T22:17:17.499Z,38.45
2019-02-23T22:19:45.384Z,40.23
2019-02-23T22:22:13.141Z,48.52
2019-02-23T22:24:40.957Z,55.80
2019-02-23T22:27:08.704Z,58.75
2019-02-23T22:29:39.422Z,69.58
2019-02-23T22:32:07.290Z,58.98
2019-02-23T22:34:35.076Z,53.85
2019-02-23T22:37:03.016Z,54.58
2019-02-23T22:39:30.905Z,51.10
2019-02-23T22:41:58.765Z,47.58
2019-02-23T22:44:26.586Z,45.85
2019-02-23T22:46:54.414Z,47.05
2019-02-23T22:49:22.301Z,46.75
2019-02-23T22:51:50.150Z,46.25
2019-02-23T22:54:18.046Z,52.73
2019-02-23T22:56:45.985Z,60.25
2019-02-23T22:59:14.202Z,64.55
2019-02-23T23:01:42.253Z,65.47
2019-02-23T23:04:10.095Z,60.40
2019-02-23T23:06:37.901Z,56.73
2019-02-23T23:09:08.134Z,52.25
2019-02-23T23:11:35.945Z,55.10
2019-02-23T23:14:04.396Z,62.65
2019-02-23T23:16:32.497Z,100.53
2019-02-23T23:19:00.219Z,111.85
2019-02-23T23:21:28.006Z,89.62
2019-02-23T23:23:55.755Z,60.20
2019-02-23T23:26:23.675Z,64.45
2019-02-23T23:28:51.505Z,52.20
2019-02-23T23:31:19.391Z,45.17
2019-02-23T23:33:47.136Z,40.50
2019-02-23T23:36:15.040Z,41.10
2019-02-23T23:38:42.783Z,38.08
2019-02-23T23:41:10.565Z,40.52
2019-02-23T23:43:38.404Z,40.35
2019-02-23T23:46:06.209Z,54.00
2019-02-23T23:48:34.157Z,51.60
2019-02-23T23:51:02.436Z,45.25
2019-02-23T23:53:30.589Z,42.45
2019-02-23T23:55:58.362Z,37.28
2019-02-23T23:58:26.279Z,35.33
